Merksplas, Belgium
Current Conditions -  °F | °C
As of 3:55 PM on Friday 24 Oct 2014 (Local Time) from EHGR Reporting Station
Drizzle Drizzle  
Wind Chill: 13°   Ceiling: 1600
Heat Index: 13°   Visibility: 6mi
Dew Point: 11°   Wind: 13mph
Humidity: 88%   Direction: 180°S
Pressure: 30.03"   Gusts: NA
Location:  51.36°N, 4.87°E
Report Text: EHGR 241355Z AUTO 18011KT 9999 DZ OVC016 13/11 Q1017 WHT 19010KT 9999 SCT020 BKN035 TEMPO FEW010 BKN015
Loading
Personal Weather Stations






























Interactive Weather Map
Tropical Storm Tracking
New forecast layout! Learn more

10-Day Weather Forecast

Advertisements
Track Severe Weather on mobile